sensor_id;sensor_type;location;lat;lon;timestamp;P1;durP1;ratioP1;P2;durP2;ratioP2
22007;SDS011;11168;56.976;24.168;2024-01-30T00:00:55;35.88;;;20.35;;
22007;SDS011;11168;56.976;24.168;2024-01-30T00:03:22;37.50;;;20.85;;
22007;SDS011;11168;56.976;24.168;2024-01-30T00:05:49;37.47;;;21.35;;
22007;SDS011;11168;56.976;24.168;2024-01-30T00:08:16;36.90;;;21.00;;
22007;SDS011;11168;56.976;24.168;2024-01-30T00:10:45;36.13;;;20.33;;
22007;SDS011;11168;56.976;24.168;2024-01-30T00:13:12;38.00;;;21.17;;
22007;SDS011;11168;56.976;24.168;2024-01-30T00:15:42;38.38;;;21.52;;
22007;SDS011;11168;56.976;24.168;2024-01-30T00:18:09;40.00;;;21.65;;
22007;SDS011;11168;56.976;24.168;2024-01-30T00:20:39;37.17;;;21.27;;
22007;SDS011;11168;56.976;24.168;2024-01-30T00:23:06;37.28;;;21.42;;
22007;SDS011;11168;56.976;24.168;2024-01-30T00:25:34;35.58;;;20.98;;
22007;SDS011;11168;56.976;24.168;2024-01-30T00:28:03;36.60;;;21.67;;
22007;SDS011;11168;56.976;24.168;2024-01-30T00:30:32;37.15;;;21.25;;
22007;SDS011;11168;56.976;24.168;2024-01-30T00:32:59;39.42;;;20.77;;
22007;SDS011;11168;56.976;24.168;2024-01-30T00:35:26;37.95;;;21.10;;
22007;SDS011;11168;56.976;24.168;2024-01-30T00:37:55;36.42;;;20.58;;
22007;SDS011;11168;56.976;24.168;2024-01-30T00:40:23;37.95;;;21.20;;
22007;SDS011;11168;56.976;24.168;2024-01-30T00:42:51;40.00;;;21.83;;
22007;SDS011;11168;56.976;24.168;2024-01-30T00:45:18;38.90;;;21.33;;
22007;SDS011;11168;56.976;24.168;2024-01-30T00:47:45;37.45;;;21.58;;
22007;SDS011;11168;56.976;24.168;2024-01-30T00:50:12;37.88;;;21.45;;
22007;SDS011;11168;56.976;24.168;2024-01-30T00:52:41;38.78;;;21.08;;
22007;SDS011;11168;56.976;24.168;2024-01-30T00:55:11;35.90;;;20.63;;
22007;SDS011;11168;56.976;24.168;2024-01-30T00:57:39;38.25;;;21.75;;
22007;SDS011;11168;56.976;24.168;2024-01-30T01:00:11;41.83;;;22.17;;
22007;SDS011;11168;56.976;24.168;2024-01-30T01:02:39;39.67;;;23.35;;
22007;SDS011;11168;56.976;24.168;2024-01-30T01:05:06;38.00;;;21.70;;
22007;SDS011;11168;56.976;24.168;2024-01-30T01:07:33;39.75;;;22.08;;
22007;SDS011;11168;56.976;24.168;2024-01-30T01:10:01;40.35;;;22.88;;
22007;SDS011;11168;56.976;24.168;2024-01-30T01:12:29;38.80;;;21.08;;
22007;SDS011;11168;56.976;24.168;2024-01-30T01:14:56;40.42;;;22.00;;
22007;SDS011;11168;56.976;24.168;2024-01-30T01:17:24;39.17;;;21.98;;
22007;SDS011;11168;56.976;24.168;2024-01-30T01:19:51;38.10;;;21.52;;
22007;SDS011;11168;56.976;24.168;2024-01-30T01:22:18;39.60;;;23.45;;
22007;SDS011;11168;56.976;24.168;2024-01-30T01:24:46;36.80;;;21.95;;
22007;SDS011;11168;56.976;24.168;2024-01-30T01:27:13;40.60;;;21.83;;
22007;SDS011;11168;56.976;24.168;2024-01-30T01:29:40;37.95;;;23.20;;
22007;SDS011;11168;56.976;24.168;2024-01-30T01:32:08;41.72;;;23.85;;
22007;SDS011;11168;56.976;24.168;2024-01-30T01:34:35;39.47;;;21.45;;
22007;SDS011;11168;56.976;24.168;2024-01-30T01:37:05;38.00;;;22.20;;
22007;SDS011;11168;56.976;24.168;2024-01-30T01:39:35;39.13;;;22.15;;
22007;SDS011;11168;56.976;24.168;2024-01-30T01:42:02;36.53;;;22.00;;
22007;SDS011;11168;56.976;24.168;2024-01-30T01:44:32;40.25;;;22.27;;
22007;SDS011;11168;56.976;24.168;2024-01-30T01:46:59;41.20;;;22.77;;
22007;SDS011;11168;56.976;24.168;2024-01-30T01:49:27;40.65;;;23.35;;
22007;SDS011;11168;56.976;24.168;2024-01-30T01:51:55;39.00;;;22.60;;
22007;SDS011;11168;56.976;24.168;2024-01-30T01:54:24;40.25;;;23.58;;
22007;SDS011;11168;56.976;24.168;2024-01-30T01:56:53;42.83;;;23.08;;
22007;SDS011;11168;56.976;24.168;2024-01-30T01:59:22;38.33;;;22.52;;
22007;SDS011;11168;56.976;24.168;2024-01-30T02:01:51;31.23;;;17.90;;
22007;SDS011;11168;56.976;24.168;2024-01-30T02:04:20;40.10;;;22.77;;
22007;SDS011;11168;56.976;24.168;2024-01-30T02:06:47;40.03;;;23.65;;
22007;SDS011;11168;56.976;24.168;2024-01-30T02:09:15;44.00;;;24.13;;
22007;SDS011;11168;56.976;24.168;2024-01-30T02:11:42;41.35;;;22.83;;
22007;SDS011;11168;56.976;24.168;2024-01-30T02:14:09;39.90;;;23.58;;
22007;SDS011;11168;56.976;24.168;2024-01-30T02:16:36;40.80;;;23.30;;
22007;SDS011;11168;56.976;24.168;2024-01-30T02:19:03;43.80;;;24.38;;
22007;SDS011;11168;56.976;24.168;2024-01-30T02:21:31;42.35;;;24.25;;
22007;SDS011;11168;56.976;24.168;2024-01-30T02:23:59;38.08;;;21.98;;
22007;SDS011;11168;56.976;24.168;2024-01-30T02:26:29;40.22;;;22.63;;
22007;SDS011;11168;56.976;24.168;2024-01-30T02:28:56;41.45;;;23.77;;
22007;SDS011;11168;56.976;24.168;2024-01-30T02:31:24;43.97;;;24.45;;
22007;SDS011;11168;56.976;24.168;2024-01-30T02:33:52;43.25;;;24.55;;
22007;SDS011;11168;56.976;24.168;2024-01-30T02:36:19;43.30;;;24.08;;
22007;SDS011;11168;56.976;24.168;2024-01-30T02:38:47;44.92;;;24.98;;
22007;SDS011;11168;56.976;24.168;2024-01-30T02:41:16;42.60;;;24.30;;
22007;SDS011;11168;56.976;24.168;2024-01-30T02:43:44;43.88;;;24.42;;
22007;SDS011;11168;56.976;24.168;2024-01-30T02:46:12;45.58;;;24.95;;
22007;SDS011;11168;56.976;24.168;2024-01-30T02:48:39;42.35;;;24.42;;
22007;SDS011;11168;56.976;24.168;2024-01-30T02:51:07;43.13;;;24.45;;
22007;SDS011;11168;56.976;24.168;2024-01-30T02:53:34;43.63;;;24.05;;
22007;SDS011;11168;56.976;24.168;2024-01-30T02:56:02;45.80;;;26.50;;
22007;SDS011;11168;56.976;24.168;2024-01-30T02:58:29;44.38;;;25.30;;
22007;SDS011;11168;56.976;24.168;2024-01-30T03:00:56;44.97;;;25.30;;
22007;SDS011;11168;56.976;24.168;2024-01-30T03:03:23;46.70;;;25.88;;
22007;SDS011;11168;56.976;24.168;2024-01-30T03:05:51;48.03;;;25.08;;
22007;SDS011;11168;56.976;24.168;2024-01-30T03:08:20;43.70;;;24.30;;
22007;SDS011;11168;56.976;24.168;2024-01-30T03:10:47;46.50;;;24.80;;
22007;SDS011;11168;56.976;24.168;2024-01-30T03:13:15;45.85;;;25.48;;
22007;SDS011;11168;56.976;24.168;2024-01-30T03:15:42;46.40;;;25.98;;
22007;SDS011;11168;56.976;24.168;2024-01-30T03:18:09;43.42;;;24.33;;
22007;SDS011;11168;56.976;24.168;2024-01-30T03:20:36;45.67;;;26.65;;
22007;SDS011;11168;56.976;24.168;2024-01-30T03:23:03;45.97;;;25.23;;
22007;SDS011;11168;56.976;24.168;2024-01-30T03:25:33;45.17;;;25.83;;
22007;SDS011;11168;56.976;24.168;2024-01-30T03:28:00;46.63;;;25.35;;
22007;SDS011;11168;56.976;24.168;2024-01-30T03:30:27;43.28;;;25.17;;
22007;SDS011;11168;56.976;24.168;2024-01-30T03:32:54;47.95;;;25.83;;
22007;SDS011;11168;56.976;24.168;2024-01-30T03:35:23;50.20;;;26.40;;
22007;SDS011;11168;56.976;24.168;2024-01-30T03:37:50;48.75;;;26.95;;
22007;SDS011;11168;56.976;24.168;2024-01-30T03:40:17;47.30;;;25.25;;
22007;SDS011;11168;56.976;24.168;2024-01-30T03:42:45;45.30;;;24.98;;
22007;SDS011;11168;56.976;24.168;2024-01-30T03:45:13;46.85;;;26.70;;
22007;SDS011;11168;56.976;24.168;2024-01-30T03:47:43;44.47;;;24.92;;
22007;SDS011;11168;56.976;24.168;2024-01-30T03:50:10;48.33;;;25.80;;
22007;SDS011;11168;56.976;24.168;2024-01-30T03:52:37;44.97;;;25.30;;
22007;SDS011;11168;56.976;24.168;2024-01-30T03:55:05;46.83;;;25.88;;
22007;SDS011;11168;56.976;24.168;2024-01-30T03:57:32;49.40;;;26.80;;
22007;SDS011;11168;56.976;24.168;2024-01-30T03:59:59;48.92;;;27.45;;
22007;SDS011;11168;56.976;24.168;2024-01-30T04:02:28;47.63;;;26.88;;
22007;SDS011;11168;56.976;24.168;2024-01-30T04:04:55;51.88;;;27.95;;
22007;SDS011;11168;56.976;24.168;2024-01-30T04:07:25;47.58;;;26.50;;
22007;SDS011;11168;56.976;24.168;2024-01-30T04:09:52;51.78;;;26.95;;
22007;SDS011;11168;56.976;24.168;2024-01-30T04:12:19;50.95;;;29.02;;
22007;SDS011;11168;56.976;24.168;2024-01-30T04:14:46;48.70;;;27.92;;
22007;SDS011;11168;56.976;24.168;2024-01-30T04:17:17;52.13;;;27.92;;
22007;SDS011;11168;56.976;24.168;2024-01-30T04:19:44;50.85;;;28.80;;
22007;SDS011;11168;56.976;24.168;2024-01-30T04:22:11;55.63;;;28.85;;
22007;SDS011;11168;56.976;24.168;2024-01-30T04:24:38;47.53;;;27.20;;
22007;SDS011;11168;56.976;24.168;2024-01-30T04:27:06;53.90;;;28.08;;
22007;SDS011;11168;56.976;24.168;2024-01-30T04:29:33;51.20;;;26.92;;
22007;SDS011;11168;56.976;24.168;2024-01-30T04:32:00;52.70;;;28.85;;
22007;SDS011;11168;56.976;24.168;2024-01-30T04:34:27;54.35;;;28.10;;
22007;SDS011;11168;56.976;24.168;2024-01-30T04:36:55;53.08;;;28.15;;
22007;SDS011;11168;56.976;24.168;2024-01-30T04:39:22;52.22;;;27.40;;
22007;SDS011;11168;56.976;24.168;2024-01-30T04:41:49;53.13;;;28.67;;
22007;SDS011;11168;56.976;24.168;2024-01-30T04:44:17;52.92;;;28.77;;
22007;SDS011;11168;56.976;24.168;2024-01-30T04:46:44;49.97;;;29.00;;
22007;SDS011;11168;56.976;24.168;2024-01-30T04:49:11;50.55;;;27.90;;
22007;SDS011;11168;56.976;24.168;2024-01-30T04:51:40;52.97;;;28.63;;
22007;SDS011;11168;56.976;24.168;2024-01-30T04:54:09;53.78;;;29.25;;
22007;SDS011;11168;56.976;24.168;2024-01-30T04:56:37;49.25;;;26.90;;
22007;SDS011;11168;56.976;24.168;2024-01-30T04:59:05;53.65;;;28.70;;
22007;SDS011;11168;56.976;24.168;2024-01-30T05:01:32;52.25;;;28.00;;
22007;SDS011;11168;56.976;24.168;2024-01-30T05:03:59;51.70;;;27.92;;
22007;SDS011;11168;56.976;24.168;2024-01-30T05:06:29;55.97;;;29.63;;
22007;SDS011;11168;56.976;24.168;2024-01-30T05:08:57;54.80;;;28.52;;
22007;SDS011;11168;56.976;24.168;2024-01-30T05:11:26;55.65;;;30.40;;
22007;SDS011;11168;56.976;24.168;2024-01-30T05:13:54;55.80;;;30.20;;
22007;SDS011;11168;56.976;24.168;2024-01-30T05:16:21;52.30;;;28.30;;
22007;SDS011;11168;56.976;24.168;2024-01-30T05:18:50;55.75;;;31.75;;
22007;SDS011;11168;56.976;24.168;2024-01-30T05:21:17;57.63;;;31.17;;
22007;SDS011;11168;56.976;24.168;2024-01-30T05:23:45;51.45;;;28.88;;
22007;SDS011;11168;56.976;24.168;2024-01-30T05:26:12;53.42;;;31.10;;
22007;SDS011;11168;56.976;24.168;2024-01-30T05:28:39;52.72;;;28.67;;
22007;SDS011;11168;56.976;24.168;2024-01-30T05:31:07;49.80;;;28.65;;
22007;SDS011;11168;56.976;24.168;2024-01-30T05:33:36;51.25;;;28.25;;
22007;SDS011;11168;56.976;24.168;2024-01-30T05:36:03;52.40;;;29.08;;
22007;SDS011;11168;56.976;24.168;2024-01-30T05:38:30;56.45;;;29.02;;
22007;SDS011;11168;56.976;24.168;2024-01-30T05:40:58;53.05;;;29.25;;
22007;SDS011;11168;56.976;24.168;2024-01-30T05:43:26;55.58;;;28.92;;
22007;SDS011;11168;56.976;24.168;2024-01-30T05:45:54;52.58;;;28.83;;
22007;SDS011;11168;56.976;24.168;2024-01-30T05:48:21;53.35;;;29.30;;
22007;SDS011;11168;56.976;24.168;2024-01-30T05:50:52;56.20;;;29.25;;
22007;SDS011;11168;56.976;24.168;2024-01-30T05:53:19;48.33;;;27.48;;
22007;SDS011;11168;56.976;24.168;2024-01-30T05:55:46;56.15;;;29.55;;
22007;SDS011;11168;56.976;24.168;2024-01-30T05:58:16;54.03;;;28.30;;
22007;SDS011;11168;56.976;24.168;2024-01-30T06:00:43;56.20;;;31.45;;
22007;SDS011;11168;56.976;24.168;2024-01-30T06:03:11;55.05;;;30.15;;
22007;SDS011;11168;56.976;24.168;2024-01-30T06:05:38;54.22;;;29.65;;
22007;SDS011;11168;56.976;24.168;2024-01-30T06:08:06;58.65;;;31.15;;
22007;SDS011;11168;56.976;24.168;2024-01-30T06:10:36;52.33;;;29.55;;
22007;SDS011;11168;56.976;24.168;2024-01-30T06:13:07;56.90;;;30.08;;
22007;SDS011;11168;56.976;24.168;2024-01-30T06:15:34;58.25;;;32.10;;
22007;SDS011;11168;56.976;24.168;2024-01-30T06:18:01;61.83;;;31.75;;
22007;SDS011;11168;56.976;24.168;2024-01-30T06:20:29;59.40;;;31.52;;
22007;SDS011;11168;56.976;24.168;2024-01-30T06:22:56;55.45;;;30.80;;
22007;SDS011;11168;56.976;24.168;2024-01-30T06:25:23;57.60;;;30.40;;
22007;SDS011;11168;56.976;24.168;2024-01-30T06:27:50;61.92;;;30.83;;
22007;SDS011;11168;56.976;24.168;2024-01-30T06:30:17;56.72;;;30.40;;
22007;SDS011;11168;56.976;24.168;2024-01-30T06:32:46;58.28;;;31.60;;
22007;SDS011;11168;56.976;24.168;2024-01-30T06:35:13;53.10;;;30.05;;
22007;SDS011;11168;56.976;24.168;2024-01-30T06:37:41;58.10;;;31.73;;
22007;SDS011;11168;56.976;24.168;2024-01-30T06:40:10;57.97;;;30.88;;
22007;SDS011;11168;56.976;24.168;2024-01-30T06:42:38;62.60;;;33.17;;
22007;SDS011;11168;56.976;24.168;2024-01-30T06:45:06;57.40;;;31.55;;
22007;SDS011;11168;56.976;24.168;2024-01-30T06:47:34;61.83;;;31.67;;
22007;SDS011;11168;56.976;24.168;2024-01-30T06:50:03;56.15;;;30.63;;
22007;SDS011;11168;56.976;24.168;2024-01-30T06:52:30;60.45;;;31.45;;
22007;SDS011;11168;56.976;24.168;2024-01-30T06:55:00;58.97;;;31.75;;
22007;SDS011;11168;56.976;24.168;2024-01-30T06:57:31;55.33;;;30.20;;
22007;SDS011;11168;56.976;24.168;2024-01-30T06:59:58;57.10;;;30.88;;
22007;SDS011;11168;56.976;24.168;2024-01-30T07:02:25;59.53;;;32.78;;
22007;SDS011;11168;56.976;24.168;2024-01-30T07:04:53;56.42;;;30.85;;
22007;SDS011;11168;56.976;24.168;2024-01-30T07:07:20;62.42;;;32.55;;
22007;SDS011;11168;56.976;24.168;2024-01-30T07:09:48;60.05;;;31.58;;
22007;SDS011;11168;56.976;24.168;2024-01-30T07:14:45;59.17;;;30.77;;
22007;SDS011;11168;56.976;24.168;2024-01-30T07:17:13;58.00;;;30.88;;
22007;SDS011;11168;56.976;24.168;2024-01-30T07:19:40;60.58;;;32.75;;
22007;SDS011;11168;56.976;24.168;2024-01-30T07:24:57;58.72;;;31.80;;
22007;SDS011;11168;56.976;24.168;2024-01-30T07:27:26;54.42;;;29.23;;
22007;SDS011;11168;56.976;24.168;2024-01-30T07:29:53;53.88;;;29.48;;
22007;SDS011;11168;56.976;24.168;2024-01-30T07:32:20;53.90;;;30.23;;
22007;SDS011;11168;56.976;24.168;2024-01-30T07:34:48;54.38;;;30.58;;
22007;SDS011;11168;56.976;24.168;2024-01-30T07:37:32;58.88;;;31.35;;
22007;SDS011;11168;56.976;24.168;2024-01-30T07:40:00;49.13;;;29.08;;
22007;SDS011;11168;56.976;24.168;2024-01-30T07:42:29;57.92;;;29.48;;
22007;SDS011;11168;56.976;24.168;2024-01-30T07:44:56;58.60;;;30.83;;
22007;SDS011;11168;56.976;24.168;2024-01-30T07:47:24;49.38;;;28.55;;
22007;SDS011;11168;56.976;24.168;2024-01-30T07:49:51;55.63;;;29.42;;
22007;SDS011;11168;56.976;24.168;2024-01-30T07:52:19;54.42;;;29.15;;
22007;SDS011;11168;56.976;24.168;2024-01-30T07:58:12;53.83;;;29.75;;
22007;SDS011;11168;56.976;24.168;2024-01-30T08:00:39;57.42;;;28.95;;
22007;SDS011;11168;56.976;24.168;2024-01-30T08:03:07;51.33;;;28.38;;
22007;SDS011;11168;56.976;24.168;2024-01-30T08:05:34;52.20;;;29.73;;
22007;SDS011;11168;56.976;24.168;2024-01-30T08:08:01;51.10;;;28.90;;
22007;SDS011;11168;56.976;24.168;2024-01-30T08:10:29;57.13;;;29.45;;
22007;SDS011;11168;56.976;24.168;2024-01-30T08:12:57;53.67;;;29.48;;
22007;SDS011;11168;56.976;24.168;2024-01-30T08:15:24;49.03;;;29.10;;
22007;SDS011;11168;56.976;24.168;2024-01-30T08:17:52;51.95;;;29.42;;
22007;SDS011;11168;56.976;24.168;2024-01-30T08:20:24;52.13;;;30.23;;
22007;SDS011;11168;56.976;24.168;2024-01-30T08:22:52;50.00;;;28.67;;
22007;SDS011;11168;56.976;24.168;2024-01-30T08:25:19;54.85;;;30.25;;
22007;SDS011;11168;56.976;24.168;2024-01-30T08:27:46;50.75;;;29.15;;
22007;SDS011;11168;56.976;24.168;2024-01-30T08:30:16;55.90;;;30.15;;
22007;SDS011;11168;56.976;24.168;2024-01-30T08:32:44;49.50;;;29.75;;
22007;SDS011;11168;56.976;24.168;2024-01-30T08:35:11;50.97;;;28.83;;
22007;SDS011;11168;56.976;24.168;2024-01-30T08:37:42;45.50;;;26.95;;
22007;SDS011;11168;56.976;24.168;2024-01-30T08:40:10;52.35;;;28.15;;
22007;SDS011;11168;56.976;24.168;2024-01-30T08:42:37;54.92;;;29.17;;
22007;SDS011;11168;56.976;24.168;2024-01-30T08:45:05;54.55;;;29.65;;
22007;SDS011;11168;56.976;24.168;2024-01-30T08:47:32;54.38;;;29.60;;
22007;SDS011;11168;56.976;24.168;2024-01-30T08:49:59;50.97;;;28.45;;
22007;SDS011;11168;56.976;24.168;2024-01-30T08:52:27;56.05;;;30.67;;
22007;SDS011;11168;56.976;24.168;2024-01-30T08:54:54;55.50;;;30.85;;
22007;SDS011;11168;56.976;24.168;2024-01-30T08:57:21;56.35;;;30.85;;
22007;SDS011;11168;56.976;24.168;2024-01-30T08:59:48;53.15;;;30.73;;
22007;SDS011;11168;56.976;24.168;2024-01-30T09:02:16;61.88;;;33.20;;
22007;SDS011;11168;56.976;24.168;2024-01-30T09:04:44;52.65;;;30.48;;
22007;SDS011;11168;56.976;24.168;2024-01-30T09:07:12;51.83;;;29.95;;
22007;SDS011;11168;56.976;24.168;2024-01-30T09:09:41;53.95;;;30.85;;
22007;SDS011;11168;56.976;24.168;2024-01-30T09:12:08;51.33;;;29.00;;
22007;SDS011;11168;56.976;24.168;2024-01-30T09:14:39;46.60;;;27.33;;
22007;SDS011;11168;56.976;24.168;2024-01-30T09:17:09;51.95;;;28.88;;
22007;SDS011;11168;56.976;24.168;2024-01-30T09:19:37;53.78;;;29.05;;
22007;SDS011;11168;56.976;24.168;2024-01-30T09:22:05;47.30;;;27.52;;
22007;SDS011;11168;56.976;24.168;2024-01-30T09:24:32;47.05;;;28.05;;
22007;SDS011;11168;56.976;24.168;2024-01-30T09:27:00;47.92;;;27.60;;
22007;SDS011;11168;56.976;24.168;2024-01-30T09:29:29;48.40;;;28.30;;
22007;SDS011;11168;56.976;24.168;2024-01-30T09:31:56;48.80;;;29.05;;
22007;SDS011;11168;56.976;24.168;2024-01-30T09:34:24;49.00;;;28.23;;
22007;SDS011;11168;56.976;24.168;2024-01-30T09:36:51;48.95;;;27.88;;
22007;SDS011;11168;56.976;24.168;2024-01-30T09:39:18;47.97;;;27.55;;
22007;SDS011;11168;56.976;24.168;2024-01-30T09:41:53;48.47;;;28.77;;
22007;SDS011;11168;56.976;24.168;2024-01-30T09:44:31;52.20;;;29.67;;
22007;SDS011;11168;56.976;24.168;2024-01-30T09:47:04;49.35;;;28.52;;
22007;SDS011;11168;56.976;24.168;2024-01-30T09:49:32;49.13;;;28.33;;
22007;SDS011;11168;56.976;24.168;2024-01-30T09:52:02;45.92;;;27.08;;
22007;SDS011;11168;56.976;24.168;2024-01-30T09:54:30;48.90;;;28.17;;
22007;SDS011;11168;56.976;24.168;2024-01-30T09:57:02;48.25;;;26.23;;
22007;SDS011;11168;56.976;24.168;2024-01-30T09:59:29;45.63;;;25.92;;
22007;SDS011;11168;56.976;24.168;2024-01-30T10:01:57;48.35;;;26.67;;
22007;SDS011;11168;56.976;24.168;2024-01-30T10:04:24;45.90;;;26.23;;
22007;SDS011;11168;56.976;24.168;2024-01-30T10:06:52;42.78;;;26.65;;
22007;SDS011;11168;56.976;24.168;2024-01-30T10:09:19;44.20;;;27.52;;
22007;SDS011;11168;56.976;24.168;2024-01-30T10:11:46;45.72;;;26.90;;
22007;SDS011;11168;56.976;24.168;2024-01-30T10:14:15;51.15;;;27.65;;
22007;SDS011;11168;56.976;24.168;2024-01-30T10:16:42;45.58;;;27.02;;
22007;SDS011;11168;56.976;24.168;2024-01-30T10:19:14;45.95;;;25.05;;
22007;SDS011;11168;56.976;24.168;2024-01-30T10:21:42;45.22;;;27.15;;
22007;SDS011;11168;56.976;24.168;2024-01-30T10:24:09;46.42;;;27.42;;
22007;SDS011;11168;56.976;24.168;2024-01-30T10:26:39;49.38;;;28.67;;
22007;SDS011;11168;56.976;24.168;2024-01-30T10:29:08;49.08;;;27.38;;
22007;SDS011;11168;56.976;24.168;2024-01-30T10:31:35;47.40;;;27.90;;
22007;SDS011;11168;56.976;24.168;2024-01-30T10:34:03;49.28;;;28.55;;
22007;SDS011;11168;56.976;24.168;2024-01-30T10:36:48;40.50;;;26.45;;
22007;SDS011;11168;56.976;24.168;2024-01-30T10:39:17;43.85;;;27.60;;
22007;SDS011;11168;56.976;24.168;2024-01-30T10:41:45;50.78;;;30.67;;
22007;SDS011;11168;56.976;24.168;2024-01-30T10:44:16;46.55;;;28.98;;
22007;SDS011;11168;56.976;24.168;2024-01-30T10:46:48;41.97;;;26.98;;
22007;SDS011;11168;56.976;24.168;2024-01-30T10:49:29;47.78;;;28.25;;
22007;SDS011;11168;56.976;24.168;2024-01-30T10:51:58;40.88;;;25.77;;
22007;SDS011;11168;56.976;24.168;2024-01-30T10:54:26;42.25;;;26.67;;
22007;SDS011;11168;56.976;24.168;2024-01-30T10:56:54;42.47;;;26.30;;
22007;SDS011;11168;56.976;24.168;2024-01-30T10:59:23;44.30;;;26.23;;
22007;SDS011;11168;56.976;24.168;2024-01-30T11:01:51;41.15;;;25.63;;
22007;SDS011;11168;56.976;24.168;2024-01-30T11:04:19;42.92;;;26.67;;
22007;SDS011;11168;56.976;24.168;2024-01-30T11:06:49;45.88;;;28.15;;
22007;SDS011;11168;56.976;24.168;2024-01-30T11:09:17;49.95;;;27.05;;
22007;SDS011;11168;56.976;24.168;2024-01-30T11:11:51;46.13;;;26.65;;
22007;SDS011;11168;56.976;24.168;2024-01-30T11:14:30;41.10;;;25.17;;
22007;SDS011;11168;56.976;24.168;2024-01-30T11:16:57;46.72;;;26.02;;
22007;SDS011;11168;56.976;24.168;2024-01-30T11:19:26;46.42;;;26.42;;
22007;SDS011;11168;56.976;24.168;2024-01-30T11:21:54;42.45;;;25.42;;
22007;SDS011;11168;56.976;24.168;2024-01-30T11:24:24;43.75;;;26.02;;
22007;SDS011;11168;56.976;24.168;2024-01-30T11:26:57;41.55;;;26.02;;
22007;SDS011;11168;56.976;24.168;2024-01-30T11:29:27;42.00;;;24.85;;
22007;SDS011;11168;56.976;24.168;2024-01-30T11:31:57;43.75;;;26.42;;
22007;SDS011;11168;56.976;24.168;2024-01-30T11:34:25;43.45;;;26.48;;
22007;SDS011;11168;56.976;24.168;2024-01-30T11:36:56;46.78;;;27.83;;
22007;SDS011;11168;56.976;24.168;2024-01-30T11:39:26;47.70;;;28.10;;
22007;SDS011;11168;56.976;24.168;2024-01-30T11:41:54;43.35;;;27.40;;
22007;SDS011;11168;56.976;24.168;2024-01-30T11:44:22;46.83;;;28.75;;
22007;SDS011;11168;56.976;24.168;2024-01-30T11:46:50;50.92;;;28.48;;
22007;SDS011;11168;56.976;24.168;2024-01-30T11:49:18;46.22;;;28.42;;
22007;SDS011;11168;56.976;24.168;2024-01-30T11:51:46;48.20;;;27.52;;
22007;SDS011;11168;56.976;24.168;2024-01-30T11:54:17;46.85;;;29.08;;
22007;SDS011;11168;56.976;24.168;2024-01-30T11:56:44;48.22;;;28.98;;
22007;SDS011;11168;56.976;24.168;2024-01-30T11:59:11;49.53;;;28.95;;
22007;SDS011;11168;56.976;24.168;2024-01-30T12:01:40;48.08;;;28.52;;
22007;SDS011;11168;56.976;24.168;2024-01-30T12:04:09;52.38;;;29.88;;
22007;SDS011;11168;56.976;24.168;2024-01-30T12:06:37;52.80;;;30.23;;
22007;SDS011;11168;56.976;24.168;2024-01-30T12:11:45;49.20;;;28.48;;
22007;SDS011;11168;56.976;24.168;2024-01-30T12:14:13;51.78;;;30.40;;
22007;SDS011;11168;56.976;24.168;2024-01-30T12:16:41;52.30;;;30.52;;
22007;SDS011;11168;56.976;24.168;2024-01-30T12:19:20;48.83;;;29.67;;
22007;SDS011;11168;56.976;24.168;2024-01-30T12:21:55;54.95;;;29.98;;
22007;SDS011;11168;56.976;24.168;2024-01-30T12:24:25;51.67;;;29.48;;
22007;SDS011;11168;56.976;24.168;2024-01-30T12:26:58;38.72;;;23.02;;
22007;SDS011;11168;56.976;24.168;2024-01-30T12:29:25;51.00;;;29.58;;
22007;SDS011;11168;56.976;24.168;2024-01-30T12:32:00;51.75;;;29.75;;
22007;SDS011;11168;56.976;24.168;2024-01-30T12:34:30;50.75;;;29.55;;
22007;SDS011;11168;56.976;24.168;2024-01-30T12:37:04;48.72;;;29.23;;
22007;SDS011;11168;56.976;24.168;2024-01-30T12:39:33;53.00;;;29.10;;
22007;SDS011;11168;56.976;24.168;2024-01-30T12:42:01;49.78;;;28.20;;
22007;SDS011;11168;56.976;24.168;2024-01-30T12:44:29;47.50;;;29.02;;
22007;SDS011;11168;56.976;24.168;2024-01-30T12:46:57;46.25;;;27.92;;
22007;SDS011;11168;56.976;24.168;2024-01-30T12:49:24;50.22;;;30.08;;
22007;SDS011;11168;56.976;24.168;2024-01-30T12:51:53;53.17;;;29.75;;
22007;SDS011;11168;56.976;24.168;2024-01-30T12:54:22;49.30;;;29.10;;
22007;SDS011;11168;56.976;24.168;2024-01-30T12:56:50;52.25;;;29.42;;
22007;SDS011;11168;56.976;24.168;2024-01-30T12:59:18;55.72;;;31.15;;
22007;SDS011;11168;56.976;24.168;2024-01-30T13:01:45;55.22;;;29.77;;
22007;SDS011;11168;56.976;24.168;2024-01-30T13:04:12;54.78;;;31.15;;
22007;SDS011;11168;56.976;24.168;2024-01-30T13:06:41;50.58;;;29.88;;
22007;SDS011;11168;56.976;24.168;2024-01-30T13:09:10;50.85;;;28.73;;
22007;SDS011;11168;56.976;24.168;2024-01-30T13:11:37;49.35;;;29.10;;
22007;SDS011;11168;56.976;24.168;2024-01-30T13:14:04;52.72;;;29.88;;
22007;SDS011;11168;56.976;24.168;2024-01-30T13:16:36;53.78;;;29.13;;
22007;SDS011;11168;56.976;24.168;2024-01-30T13:19:03;54.10;;;30.27;;
22007;SDS011;11168;56.976;24.168;2024-01-30T13:21:30;51.25;;;29.55;;
22007;SDS011;11168;56.976;24.168;2024-01-30T13:23:57;51.20;;;30.55;;
22007;SDS011;11168;56.976;24.168;2024-01-30T13:26:24;55.70;;;29.85;;
22007;SDS011;11168;56.976;24.168;2024-01-30T13:28:52;53.67;;;30.30;;
22007;SDS011;11168;56.976;24.168;2024-01-30T13:31:19;53.70;;;30.88;;
22007;SDS011;11168;56.976;24.168;2024-01-30T13:33:47;56.80;;;30.83;;
22007;SDS011;11168;56.976;24.168;2024-01-30T13:36:17;56.80;;;31.73;;
22007;SDS011;11168;56.976;24.168;2024-01-30T13:38:44;57.33;;;32.53;;
22007;SDS011;11168;56.976;24.168;2024-01-30T13:41:12;56.58;;;31.63;;
22007;SDS011;11168;56.976;24.168;2024-01-30T13:43:41;56.55;;;31.63;;
22007;SDS011;11168;56.976;24.168;2024-01-30T13:46:08;54.10;;;30.42;;
22007;SDS011;11168;56.976;24.168;2024-01-30T13:48:35;60.95;;;32.15;;
22007;SDS011;11168;56.976;24.168;2024-01-30T13:51:04;60.72;;;31.67;;
22007;SDS011;11168;56.976;24.168;2024-01-30T13:53:31;59.63;;;30.73;;
22007;SDS011;11168;56.976;24.168;2024-01-30T13:55:58;60.28;;;30.83;;
22007;SDS011;11168;56.976;24.168;2024-01-30T13:58:28;55.85;;;31.02;;
22007;SDS011;11168;56.976;24.168;2024-01-30T14:00:56;56.92;;;32.00;;
22007;SDS011;11168;56.976;24.168;2024-01-30T14:03:23;54.20;;;30.67;;
22007;SDS011;11168;56.976;24.168;2024-01-30T14:05:50;57.13;;;32.60;;
22007;SDS011;11168;56.976;24.168;2024-01-30T14:08:20;58.25;;;31.42;;
22007;SDS011;11168;56.976;24.168;2024-01-30T14:10:50;54.33;;;30.45;;
22007;SDS011;11168;56.976;24.168;2024-01-30T14:13:18;53.00;;;31.25;;
22007;SDS011;11168;56.976;24.168;2024-01-30T14:15:45;57.10;;;31.98;;
22007;SDS011;11168;56.976;24.168;2024-01-30T14:18:14;62.42;;;32.60;;
22007;SDS011;11168;56.976;24.168;2024-01-30T14:20:42;56.40;;;32.35;;
22007;SDS011;11168;56.976;24.168;2024-01-30T14:23:11;60.00;;;33.60;;
22007;SDS011;11168;56.976;24.168;2024-01-30T14:25:38;69.45;;;35.13;;